Time;durP1;ratioP1;P1;durP2;ratioP2;P2;SDS_P1;SDS_P2;PMS_P1;PMS_P2;Temp;Humidity;BMP_temperature;BMP_pressure;BME280_temperature;BME280_humidity;BME280_pressure;Samples;Min_cycle;Max_cycle;Signal;HPM_P1;HPM_P2
2022/04/29 00:02:06;;;;;;;15.27;9.57;;;;;;;14.28;100.00;99651.56;5033673;28;20173;-84
2022/04/29 00:04:32;;;;;;;15.90;10.47;;;;;;;14.20;100.00;99642.78;5033673;28;20166;-83
2022/04/29 00:06:57;;;;;;;17.40;9.87;;;;;;;14.18;100.00;99644.41;5033440;28;20177;-82
2022/04/29 00:09:23;;;;;;;17.17;10.33;;;;;;;14.94;100.00;99743.75;5033533;28;20584;-82
2022/04/29 00:11:51;;;;;;;17.97;10.93;;;;;;;13.08;100.00;99417.66;5033633;28;20158;-82
2022/04/29 00:14:17;;;;;;;18.17;11.50;;;;;;;13.97;100.00;99573.28;5035322;28;20151;-84
2022/04/29 00:16:43;;;;;;;19.40;11.60;;;;;;;14.84;100.00;99716.22;5034081;28;20270;-82
2022/04/29 00:19:09;;;;;;;21.17;12.43;;;;;;;13.95;100.00;99551.16;5033536;28;20245;-84
2022/04/29 00:21:34;;;;;;;18.20;11.57;;;;;;;14.64;100.00;99685.03;5033505;28;20277;-84
2022/04/29 00:23:59;;;;;;;19.37;12.40;;;;;;;14.75;100.00;99727.84;5032961;28;20201;-83
2022/04/29 00:26:25;;;;;;;19.63;11.87;;;;;;;13.82;100.00;99557.50;5033215;28;20595;-84
2022/04/29 00:28:50;;;;;;;17.80;11.83;;;;;;;13.98;100.00;99599.63;5032851;28;20162;-84
2022/04/29 00:31:16;;;;;;;19.90;11.77;;;;;;;14.15;100.00;99619.72;5032992;28;20158;-83
2022/04/29 00:33:41;;;;;;;20.07;12.10;;;;;;;14.80;100.00;99722.91;5033228;28;20304;-84
2022/04/29 00:36:07;;;;;;;19.67;12.27;;;;;;;14.00;100.00;99608.16;5033089;28;20154;-83
2022/04/29 00:38:33;;;;;;;20.10;13.00;;;;;;;14.04;100.00;99605.75;5033112;28;20166;-83
2022/04/29 00:40:58;;;;;;;14.60;9.07;;;;;;;14.64;100.00;99729.19;5032858;28;20212;-83
2022/04/29 00:43:23;;;;;;;21.00;13.07;;;;;;;14.58;100.00;99703.53;5032717;28;20273;-84
2022/04/29 00:45:50;;;;;;;22.20;13.33;;;;;;;13.72;100.00;99557.16;5032955;28;20185;-84
2022/04/29 00:48:17;;;;;;;21.60;12.97;;;;;;;14.46;100.00;99686.97;5032615;28;20158;-83
2022/04/29 00:50:43;;;;;;;21.30;12.43;;;;;;;13.79;100.00;99602.38;5032889;28;20166;-84
2022/04/29 00:53:11;;;;;;;21.60;13.60;;;;;;;13.93;100.00;99649.47;5032563;28;20220;-83
2022/04/29 00:55:39;;;;;;;26.93;13.70;;;;;;;14.05;100.00;99652.44;5032598;28;20166;-84
2022/04/29 00:58:06;;;;;;;23.57;14.27;;;;;;;14.51;100.00;99716.88;5032708;28;20653;-84
2022/04/29 01:00:31;;;;;;;24.07;13.70;;;;;;;13.29;100.00;99493.81;5032453;28;20217;-84
2022/04/29 01:02:59;;;;;;;21.80;13.57;;;;;;;13.71;100.00;99626.66;5031731;28;20586;-84
2022/04/29 01:05:27;;;;;;;23.83;13.83;;;;;;;12.66;100.00;99451.72;5032353;28;20168;-84
2022/04/29 01:07:53;;;;;;;25.80;14.07;;;;;;;14.19;100.00;99710.69;5032335;28;20193;-84
2022/04/29 01:10:20;;;;;;;26.00;13.53;;;;;;;14.12;100.00;99721.44;5032519;28;20182;-85
2022/04/29 01:12:49;;;;;;;24.60;14.13;;;;;;;13.01;100.00;99537.69;5032516;28;20229;-84
2022/04/29 01:15:17;;;;;;;24.97;15.07;;;;;;;14.18;100.00;99720.78;5032099;28;20226;-84
2022/04/29 01:17:45;;;;;;;25.17;15.17;;;;;;;14.26;100.00;99718.50;5032678;28;20154;-84
2022/04/29 01:20:14;;;;;;;26.13;14.73;;;;;;;14.03;100.00;99684.63;5032045;28;20208;-84
2022/04/29 01:22:40;;;;;;;28.20;15.97;;;;;;;14.08;100.00;99716.22;5031966;28;20189;-84
2022/04/29 01:25:05;;;;;;;26.03;14.30;;;;;;;13.66;100.00;99621.41;5032246;28;20558;-85
2022/04/29 01:27:31;;;;;;;24.17;14.90;;;;;;;14.29;100.00;99714.38;5032029;28;20245;-83
2022/04/29 01:30:11;;;;;;;31.13;15.13;;;;;;;14.32;100.00;99708.56;5031906;28;20590;-84
2022/04/29 01:32:39;;;;;;;23.23;13.90;;;;;;;14.29;100.00;99673.63;5031926;28;20162;-84
2022/04/29 01:35:06;;;;;;;27.47;15.60;;;;;;;14.47;100.00;99712.50;5031932;28;20169;-84
2022/04/29 01:37:31;;;;;;;26.10;15.30;;;;;;;14.06;100.00;99624.50;5031921;28;20173;-84
2022/04/29 01:39:57;;;;;;;25.90;15.17;;;;;;;13.13;100.00;99505.09;5031495;28;20190;-84
2022/04/29 01:42:22;;;;;;;23.17;14.50;;;;;;;14.22;100.00;99696.31;5031338;28;20205;-84
2022/04/29 01:44:48;;;;;;;24.60;14.47;;;;;;;12.55;100.00;99392.06;5031980;28;20209;-84
2022/04/29 01:47:14;;;;;;;26.50;14.83;;;;;;;13.64;100.00;99587.44;5031503;28;20245;-84
2022/04/29 01:49:41;;;;;;;24.10;14.77;;;;;;;13.57;100.00;99601.59;5031347;28;20257;-83
2022/04/29 01:52:08;;;;;;;25.20;14.73;;;;;;;14.27;100.00;99692.22;5031498;28;20162;-83
2022/04/29 01:54:34;;;;;;;24.83;14.67;;;;;;;13.86;100.00;99591.56;5031658;28;20162;-83
2022/04/29 01:57:00;;;;;;;23.77;14.20;;;;;;;14.45;100.00;99691.19;5031834;28;20213;-83
2022/04/29 01:59:27;;;;;;;24.20;13.80;;;;;;;13.65;100.00;99566.28;5031402;28;20634;-84
2022/04/29 02:01:53;;;;;;;24.70;13.77;;;;;;;14.63;100.00;99698.56;5031213;28;20174;-83
2022/04/29 02:04:18;;;;;;;24.03;14.07;;;;;;;14.14;100.00;99612.91;5031686;28;20169;-84
2022/04/29 02:06:44;;;;;;;24.73;14.13;;;;;;;14.26;100.00;99671.00;5031487;28;20333;-84
2022/04/29 02:09:09;;;;;;;21.30;13.53;;;;;;;14.29;100.00;99699.09;5031584;28;20709;-83
2022/04/29 02:11:34;;;;;;;26.00;15.00;;;;;;;14.01;100.00;99614.97;5031389;28;20166;-83
2022/04/29 02:14:01;;;;;;;21.80;13.67;;;;;;;14.36;100.00;99701.09;5031511;28;20231;-83
2022/04/29 02:16:27;;;;;;;23.23;14.00;;;;;;;14.36;100.00;99701.09;5031195;28;20217;-83
2022/04/29 02:18:52;;;;;;;22.80;13.53;;;;;;;14.38;100.00;99703.69;5047019;28;20614;-84
2022/04/29 02:21:17;;;;;;;26.00;15.17;;;;;;;14.38;100.00;99704.53;5031264;28;20194;-85
2022/04/29 02:23:43;;;;;;;23.80;15.30;;;;;;;14.04;100.00;99641.41;5031239;28;20170;-84
2022/04/29 02:26:08;;;;;;;23.23;14.20;;;;;;;14.08;100.00;99671.25;5031055;28;20696;-84
2022/04/29 02:28:34;;;;;;;24.90;14.63;;;;;;;14.37;100.00;99702.81;5031328;28;20220;-85
2022/04/29 02:31:00;;;;;;;25.40;14.90;;;;;;;14.45;100.00;99711.56;5031711;28;20151;-83
2022/04/29 02:33:27;;;;;;;23.47;14.30;;;;;;;14.35;100.00;99698.47;5033914;28;20185;-82
2022/04/29 02:35:53;;;;;;;25.30;15.33;;;;;;;14.49;100.00;99705.78;5032454;28;20178;-84
2022/04/29 02:38:18;;;;;;;24.80;14.67;;;;;;;14.14;100.00;99709.66;5063679;28;20623;-83
2022/04/29 02:40:43;;;;;;;24.97;14.50;;;;;;;14.02;100.00;99710.91;5030790;28;20285;-85
2022/04/29 02:43:09;;;;;;;25.03;14.50;;;;;;;13.46;100.00;99622.38;5031136;28;20641;-83
2022/04/29 02:45:34;;;;;;;25.13;15.27;;;;;;;13.38;100.00;99604.31;5031238;28;20178;-84
2022/04/29 02:48:00;;;;;;;24.53;14.87;;;;;;;14.02;100.00;99716.00;5063187;28;20185;-83
2022/04/29 02:50:25;;;;;;;25.07;15.30;;;;;;;13.31;100.00;99602.38;5031818;28;20162;-83
2022/04/29 02:52:51;;;;;;;26.17;15.13;;;;;;;14.05;100.00;99723.75;5032532;28;20169;-83
2022/04/29 02:55:17;;;;;;;24.13;15.03;;;;;;;13.21;100.00;99605.38;5034970;28;20551;-84
2022/04/29 02:57:43;;;;;;;24.63;14.87;;;;;;;13.94;100.00;99702.13;5035054;28;20165;-84
2022/04/29 03:00:09;;;;;;;26.23;14.70;;;;;;;13.67;100.00;99675.72;5034831;28;20190;-84
2022/04/29 03:02:34;;;;;;;23.83;13.77;;;;;;;13.36;100.00;99605.06;5034769;28;20182;-84
2022/04/29 03:05:00;;;;;;;25.77;15.13;;;;;;;13.85;100.00;99684.84;5035113;28;20216;-83
2022/04/29 03:07:25;;;;;;;23.87;14.60;;;;;;;13.96;100.00;99738.69;5035153;28;20166;-83
2022/04/29 03:09:51;;;;;;;27.50;15.83;;;;;;;13.76;100.00;99681.97;5034710;28;20536;-84
2022/04/29 03:12:16;;;;;;;25.53;14.77;;;;;;;13.17;100.00;99575.59;5034667;28;20277;-84
2022/04/29 03:14:42;;;;;;;25.50;15.70;;;;;;;14.01;100.00;99689.66;5034492;28;20174;-84
2022/04/29 03:18:17;;;;;;;25.97;15.47;;;;;;;14.23;100.00;99748.97;5034742;28;20162;-84
2022/04/29 03:19:58;;;;;;;26.93;16.00;;;;;;;14.31;100.00;99730.56;5034676;28;20194;-84
2022/04/29 03:22:24;;;;;;;26.57;14.40;;;;;;;14.26;100.00;99751.59;5034929;28;20579;-84
2022/04/29 03:24:49;;;;;;;22.50;14.80;;;;;;;13.59;100.00;99630.53;5034066;28;20232;-84
2022/04/29 03:27:14;;;;;;;25.70;15.57;;;;;;;13.75;100.00;99671.75;5034313;28;20224;-84
2022/04/29 03:29:40;;;;;;;26.10;15.87;;;;;;;14.26;100.00;99749.94;5035423;28;20558;-85
2022/04/29 03:32:05;;;;;;;22.43;13.30;;;;;;;12.72;100.00;99512.88;5040413;28;20170;-83
2022/04/29 03:34:31;;;;;;;24.37;14.33;;;;;;;13.25;100.00;99612.31;5034826;28;20270;-84
2022/04/29 03:36:56;;;;;;;25.10;15.00;;;;;;;14.12;100.00;99756.22;5035200;28;20162;-83
2022/04/29 03:39:22;;;;;;;26.63;15.27;;;;;;;14.17;100.00;99759.81;5034862;28;20630;-83
2022/04/29 03:41:47;;;;;;;28.07;15.20;;;;;;;14.16;100.00;99758.06;5034143;28;20194;-84
2022/04/29 03:44:12;;;;;;;25.63;15.07;;;;;;;13.64;100.00;99690.88;5034249;28;20173;-84
2022/04/29 03:46:38;;;;;;;25.60;15.73;;;;;;;12.64;100.00;99511.72;5034558;28;20597;-83
2022/04/29 03:51:47;;;;;;;25.93;15.37;;;;;;;14.26;100.00;99760.13;5035062;28;20165;-84
2022/04/29 03:54:12;;;;;;;23.87;15.13;;;;;;;13.61;100.00;99638.19;5036923;28;20162;-84
2022/04/29 03:56:38;;;;;;;24.63;15.47;;;;;;;14.17;100.00;99736.91;5038865;28;20189;-84
2022/04/29 03:59:03;;;;;;;22.27;14.80;;;;;;;13.57;100.00;99656.69;5035875;28;20248;-85
2022/04/29 04:01:29;;;;;;;25.63;15.80;;;;;;;14.11;100.00;99767.25;5033700;28;20569;-83
2022/04/29 04:03:55;;;;;;;22.93;13.17;;;;;;;14.01;100.00;99739.69;5033670;28;20173;-84
2022/04/29 04:09:09;;;;;;;21.67;14.17;;;;;;;14.09;100.00;99725.59;5031406;28;20202;-84
2022/04/29 04:11:36;;;;;;;23.13;14.13;;;;;;;14.38;100.00;99780.09;5031593;28;20352;-84
2022/04/29 04:14:01;;;;;;;22.87;13.03;;;;;;;14.34;100.00;99774.00;5014975;28;20185;-83
2022/04/29 04:16:27;;;;;;;23.93;13.43;;;;;;;14.26;100.00;99775.41;5031406;28;20233;-83
2022/04/29 04:18:52;;;;;;;23.70;13.73;;;;;;;14.20;100.00;99780.31;5031356;28;20640;-82
2022/04/29 04:21:18;;;;;;;21.60;13.03;;;;;;;13.57;100.00;99674.50;5031128;28;20225;-83
2022/04/29 04:23:43;;;;;;;23.60;13.73;;;;;;;14.27;100.00;99783.91;5014707;28;20182;-83
2022/04/29 04:26:09;;;;;;;24.40;15.20;;;;;;;14.39;100.00;99779.28;5031151;28;20185;-83
2022/04/29 04:28:34;;;;;;;27.17;15.33;;;;;;;14.59;99.35;99784.22;5018679;28;20250;-82
2022/04/29 04:30:59;;;;;;;25.77;15.07;;;;;;;14.14;97.68;99701.16;5025682;28;20251;-82
2022/04/29 04:33:25;;;;;;;26.00;14.93;;;;;;;14.74;97.31;99789.84;5029188;28;20220;-82
2022/04/29 04:35:50;;;;;;;25.00;13.97;;;;;;;14.50;98.16;99785.63;5029306;28;20584;-82
2022/04/29 04:38:16;;;;;;;24.40;14.20;;;;;;;14.41;98.02;99755.59;5029394;28;20273;-83
2022/04/29 04:40:42;;;;;;;24.43;14.50;;;;;;;14.52;95.87;99764.47;5028156;28;20223;-82
2022/04/29 04:43:08;;;;;;;27.17;15.10;;;;;;;12.54;97.79;99486.81;5029956;28;20189;-83
2022/04/29 04:45:33;;;;;;;24.57;14.33;;;;;;;14.49;95.65;99786.41;5030167;28;20205;-83
2022/04/29 04:47:59;;;;;;;23.00;12.70;;;;;;;14.36;94.86;99754.59;5031985;28;20232;-84
2022/04/29 04:50:24;;;;;;;24.23;15.10;;;;;;;14.91;92.83;99792.09;5032292;28;20605;-81
2022/04/29 04:52:49;;;;;;;23.40;14.23;;;;;;;14.66;93.63;99790.41;5031675;28;20845;-82
2022/04/29 04:55:15;;;;;;;25.87;14.93;;;;;;;14.34;92.02;99707.78;5031342;28;20185;-83
2022/04/29 04:57:40;;;;;;;24.97;15.37;;;;;;;13.56;91.31;99553.22;5029351;28;20185;-83
2022/04/29 05:00:08;;;;;;;24.83;14.87;;;;;;;14.74;90.75;99789.00;5030350;28;20284;-83
2022/04/29 05:02:33;;;;;;;24.07;14.50;;;;;;;14.63;89.69;99727.47;5030560;28;20626;-83
2022/04/29 05:04:58;;;;;;;23.23;14.23;;;;;;;14.55;89.65;99728.91;5030422;28;20182;-82
2022/04/29 05:07:24;;;;;;;26.63;15.37;;;;;;;14.71;87.88;99702.22;5031277;28;20185;-83
2022/04/29 05:09:50;;;;;;;31.17;19.17;;;;;;;14.35;89.13;99712.09;5031619;28;20185;-83
2022/04/29 05:12:15;;;;;;;24.73;15.20;;;;;;;14.92;88.05;99791.25;5031668;28;20517;-83
2022/04/29 05:14:40;;;;;;;25.97;15.57;;;;;;;15.10;87.71;99802.06;5030868;28;20184;-83
2022/04/29 05:17:06;;;;;;;24.77;14.10;;;;;;;14.33;87.54;99678.06;5030675;28;20646;-82
2022/04/29 05:19:31;;;;;;;22.17;13.53;;;;;;;14.18;86.88;99691.13;5031388;28;20241;-83
2022/04/29 05:21:57;;;;;;;27.37;15.67;;;;;;;14.78;88.00;99767.88;5030217;28;20189;-83
2022/04/29 05:24:22;;;;;;;22.73;13.93;;;;;;;15.07;86.11;99799.41;5030618;28;20185;-84
2022/04/29 05:26:47;;;;;;;23.77;16.00;;;;;;;14.49;86.86;99723.59;5030796;28;20570;-82
2022/04/29 05:29:13;;;;;;;24.93;16.00;;;;;;;14.92;86.93;99806.56;5005646;28;20225;-82
2022/04/29 05:31:39;;;;;;;26.90;15.73;;;;;;;13.85;86.82;99618.69;5028955;28;20190;-83
2022/04/29 05:34:06;;;;;;;30.70;18.57;;;;;;;15.07;87.14;99813.03;5031484;28;20182;-83
2022/04/29 05:36:33;;;;;;;30.50;18.80;;;;;;;13.49;87.04;99514.00;5030667;28;20197;-83
2022/04/29 05:44:28;;;;;;;28.23;16.23;;;;;;;14.97;84.97;99815.25;5030358;28;20255;-82
2022/04/29 05:46:53;;;;;;;23.23;15.53;;;;;;;14.14;82.57;99599.31;5030735;28;20174;-82
2022/04/29 05:49:18;;;;;;;28.03;16.30;;;;;;;14.13;81.47;99583.16;5029977;28;20660;-82
2022/04/29 05:51:44;;;;;;;21.80;13.87;;;;;;;15.00;81.52;99782.16;5030175;28;20186;-82
2022/04/29 05:54:09;;;;;;;22.97;14.10;;;;;;;14.62;82.22;99701.94;5030591;28;20731;-84
2022/04/29 05:56:34;;;;;;;24.90;15.93;;;;;;;15.20;82.34;99771.78;5030825;28;20249;-83
2022/04/29 05:59:00;;;;;;;27.30;15.40;;;;;;;15.48;80.44;99816.91;5030639;28;20224;-83
2022/04/29 06:01:25;;;;;;;50.13;26.20;;;;;;;15.49;81.60;99822.91;5029764;28;20209;-84
2022/04/29 06:03:51;;;;;;;24.57;15.20;;;;;;;15.07;82.14;99779.00;5030056;28;20624;-82
2022/04/29 06:06:16;;;;;;;40.37;21.13;;;;;;;15.29;83.88;99814.59;5030458;28;20596;-83
2022/04/29 06:08:42;;;;;;;97.43;27.60;;;;;;;15.09;82.28;99729.78;5030028;28;20251;-83
2022/04/29 06:11:07;;;;;;;45.80;19.97;;;;;;;14.04;81.73;99613.41;5029840;28;20182;-83
2022/04/29 06:13:32;;;;;;;35.50;17.00;;;;;;;15.42;81.51;99815.81;5030277;28;20190;-84
2022/04/29 06:15:59;;;;;;;26.90;16.27;;;;;;;15.57;81.01;99822.31;5029543;28;20224;-83
2022/04/29 06:18:24;;;;;;;26.33;14.63;;;;;;;15.25;81.44;99817.84;5028984;28;20192;-83
2022/04/29 06:20:50;;;;;;;24.07;14.37;;;;;;;15.51;79.95;99822.13;5041020;28;20209;-84
2022/04/29 06:23:15;;;;;;;21.87;13.40;;;;;;;14.99;81.11;99752.41;5027084;28;20881;-82
2022/04/29 06:25:41;;;;;;;25.70;15.53;;;;;;;15.51;81.50;99832.31;5028681;28;20331;-84
2022/04/29 06:28:06;;;;;;;25.23;14.27;;;;;;;14.49;82.26;99656.50;5030754;28;20616;-83
2022/04/29 06:30:32;;;;;;;25.87;14.93;;;;;;;15.68;81.66;99831.16;5023400;28;20237;-83
2022/04/29 06:32:57;;;;;;;23.83;14.27;;;;;;;15.46;82.17;99830.41;5031725;28;20581;-83
2022/04/29 06:35:23;;;;;;;30.17;17.53;;;;;;;15.38;81.44;99845.50;5032696;28;20181;-84
2022/04/29 06:37:48;;;;;;;27.30;16.63;;;;;;;15.59;79.71;99828.31;5032116;28;20560;-84
2022/04/29 06:40:14;;;;;;;23.60;15.43;;;;;;;15.50;79.32;99817.81;5033547;28;20266;-84
2022/04/29 06:42:46;;;;;;;22.93;13.20;;;;;;;15.42;77.95;99834.56;5037249;28;20182;-84
2022/04/29 06:45:12;;;;;;;22.37;13.27;;;;;;;15.10;78.71;99813.13;5050641;28;20215;-84
2022/04/29 06:47:38;;;;;;;27.33;15.00;;;;;;;14.48;79.11;99673.47;5047607;28;20574;-84
2022/04/29 06:50:04;;;;;;;21.17;14.53;;;;;;;15.62;77.89;99830.09;5031833;28;20193;-82
2022/04/29 06:52:29;;;;;;;24.13;14.67;;;;;;;15.35;78.58;99792.66;5032294;28;20273;-84
2022/04/29 06:54:55;;;;;;;23.97;13.33;;;;;;;15.42;80.09;99832.00;5033476;28;20193;-83
2022/04/29 06:57:20;;;;;;;24.47;15.97;;;;;;;14.49;79.89;99659.03;5033806;28;20188;-85
2022/04/29 06:59:46;;;;;;;25.20;15.87;;;;;;;15.72;79.34;99837.19;5033473;28;20173;-84
2022/04/29 07:02:11;;;;;;;26.07;16.60;;;;;;;15.87;79.13;99830.00;5033661;28;20260;-82
2022/04/29 07:04:38;;;;;;;30.60;15.63;;;;;;;15.48;77.12;99749.69;5033626;28;20263;-83
2022/04/29 07:07:05;;;;;;;30.17;17.70;;;;;;;16.19;75.25;99833.47;5034098;28;20236;-83
2022/04/29 07:09:30;;;;;;;30.97;17.70;;;;;;;16.30;73.65;99843.19;5035486;28;20206;-84
2022/04/29 07:11:56;;;;;;;46.10;28.37;;;;;;;16.47;73.30;99833.41;5034986;28;20186;-83
2022/04/29 07:14:22;;;;;;;37.40;23.27;;;;;;;16.02;71.89;99738.50;5034013;28;20189;-84
2022/04/29 07:16:48;;;;;;;24.87;14.77;;;;;;;16.07;69.86;99738.66;5035914;28;20229;-86
2022/04/29 07:19:14;;;;;;;22.60;14.60;;;;;;;16.23;69.35;99766.34;5035546;28;20548;-84
2022/04/29 07:21:39;;;;;;;42.73;21.47;;;;;;;16.52;68.80;99802.06;5035245;28;20201;-84
2022/04/29 07:24:05;;;;;;;29.80;17.70;;;;;;;16.44;68.55;99792.44;5035168;28;20265;-85
2022/04/29 07:26:31;;;;;;;30.50;16.07;;;;;;;16.46;70.28;99836.78;5036109;28;20189;-86
2022/04/29 07:28:56;;;;;;;38.30;21.60;;;;;;;16.86;69.62;99833.63;5024595;28;20238;-84
2022/04/29 07:31:21;;;;;;;27.87;16.70;;;;;;;16.27;67.53;99701.69;5034107;28;20193;-85
2022/04/29 07:33:47;;;;;;;26.47;17.70;;;;;;;16.94;67.88;99810.00;5035470;28;20209;-84
2022/04/29 07:41:46;;;;;;;32.20;19.50;;;;;;;17.44;67.89;99830.81;5034927;28;20216;-86
2022/04/29 07:44:15;;;;;;;24.13;16.37;;;;;;;17.95;65.61;99838.78;5035806;28;20182;-86
2022/04/29 07:46:43;;;;;;;22.00;13.97;;;;;;;17.70;66.11;99819.47;5034585;28;20261;-86
2022/04/29 07:49:09;;;;;;;23.03;14.57;;;;;;;17.53;67.45;99831.91;5034226;28;20309;-86
2022/04/29 07:51:35;;;;;;;25.77;15.93;;;;;;;16.37;67.62;99662.81;5034996;28;20182;-85
2022/04/29 07:54:00;;;;;;;25.13;16.33;;;;;;;17.74;67.23;99846.91;5035361;28;20718;-82
2022/04/29 07:56:26;;;;;;;25.93;17.40;;;;;;;18.50;64.49;99851.06;5035487;28;20626;-86
2022/04/29 07:58:51;;;;;;;25.07;16.90;;;;;;;18.46;63.03;99800.53;5034565;28;20185;-85
2022/04/29 08:01:17;;;;;;;21.47;14.30;;;;;;;18.90;60.97;99794.50;5034780;28;20696;-85
2022/04/29 08:03:42;;;;;;;21.47;13.97;;;;;;;18.63;59.17;99702.56;5035254;28;20178;-86
2022/04/29 08:06:08;;;;;;;19.57;13.60;;;;;;;19.40;59.50;99849.25;5033205;28;20269;-86
2022/04/29 08:08:35;;;;;;;23.43;15.63;;;;;;;18.40;61.22;99778.22;5034920;28;20580;-84
2022/04/29 08:11:00;;;;;;;19.97;14.10;;;;;;;19.35;60.15;99817.47;5034374;28;20232;-86
2022/04/29 08:13:27;;;;;;;18.67;13.23;;;;;;;19.40;60.08;99842.41;5034222;28;20182;-85
2022/04/29 08:15:52;;;;;;;19.47;11.67;;;;;;;18.47;62.37;99848.41;5034549;28;20218;-84
2022/04/29 08:18:18;;;;;;;19.37;13.43;;;;;;;17.80;65.82;99841.03;5035623;28;20185;-85
2022/04/29 08:20:44;;;;;;;21.53;14.03;;;;;;;18.34;65.37;99837.06;5037209;28;20201;-86
2022/04/29 08:23:10;;;;;;;19.40;13.67;;;;;;;18.87;61.98;99830.34;5036288;28;20646;-85
2022/04/29 08:25:36;;;;;;;19.83;12.70;;;;;;;18.28;63.74;99821.53;5035640;28;20174;-85
2022/04/29 08:28:02;;;;;;;22.60;13.33;;;;;;;18.15;66.23;99835.81;5037242;28;20162;-86
2022/04/29 08:30:30;;;;;;;20.67;13.00;;;;;;;17.71;66.11;99794.72;5037893;28;20186;-87
2022/04/29 08:32:56;;;;;;;18.37;12.67;;;;;;;17.09;64.55;99612.50;5035420;28;20264;-87
2022/04/29 08:35:22;;;;;;;19.57;12.70;;;;;;;16.74;63.94;99536.72;5034251;28;20619;-86
2022/04/29 08:37:47;;;;;;;24.23;16.00;;;;;;;19.34;61.93;99824.31;5036056;28;20216;-84
2022/04/29 08:40:13;;;;;;;19.93;13.00;;;;;;;20.01;57.53;99733.63;5035994;28;20197;-85
2022/04/29 08:42:40;;;;;;;19.27;12.97;;;;;;;20.01;56.78;99754.19;5035672;28;20158;-87
2022/04/29 08:45:07;;;;;;;20.17;13.33;;;;;;;19.64;59.31;99831.63;5038480;28;20672;-87
2022/04/29 08:47:35;;;;;;;20.00;14.00;;;;;;;18.68;57.96;99587.22;5037317;28;20158;-87
2022/04/29 08:50:01;;;;;;;17.40;11.70;;;;;;;19.41;56.61;99738.88;5039508;28;20170;-86
2022/04/29 08:52:28;;;;;;;18.00;13.10;;;;;;;18.73;58.69;99675.38;5041702;28;20166;-86
2022/04/29 09:00:23;;;;;;;17.57;12.13;;;;;;;20.03;55.17;99762.75;5033640;28;20252;-84
2022/04/29 09:02:49;;;;;;;17.80;11.90;;;;;;;20.55;55.38;99809.66;5033652;28;20596;-84
2022/04/29 09:05:14;;;;;;;17.00;10.27;;;;;;;19.48;55.87;99749.19;5034286;28;20200;-84
2022/04/29 09:07:54;;;;;;;20.37;13.13;;;;;;;19.21;58.26;99744.50;5033868;28;20618;-84
2022/04/29 09:10:24;;;;;;;18.20;13.00;;;;;;;20.26;55.99;99768.22;5038902;28;20162;-85
2022/04/29 09:12:50;;;;;;;21.50;13.30;;;;;;;20.69;53.13;99725.72;5034300;28;20163;-81
2022/04/29 09:15:16;;;;;;;30.13;14.13;;;;;;;20.80;53.57;99805.59;5034154;28;20226;-84
2022/04/29 09:17:46;;;;;;;28.40;13.23;;;;;;;21.17;51.91;99812.84;5034017;28;20177;-84
2022/04/29 09:20:18;;;;;;;18.33;13.07;;;;;;;20.93;52.86;99800.56;5033823;28;20643;-85
2022/04/29 09:22:50;;;;;;;16.77;12.57;;;;;;;20.81;52.91;99809.91;5033843;28;20201;-84
2022/04/29 09:25:17;;;;;;;17.83;11.17;;;;;;;19.14;54.89;99656.31;5033374;28;20177;-85
2022/04/29 09:27:57;;;;;;;17.27;11.20;;;;;;;20.35;54.82;99801.75;5033806;28;20166;-84
2022/04/29 09:30:40;;;;;;;17.47;11.37;;;;;;;20.44;54.31;99794.09;5040913;28;20168;-82
2022/04/29 09:33:19;;;;;;;17.33;12.33;;;;;;;19.84;56.89;99750.53;5033378;28;20559;-84
2022/04/29 09:35:46;;;;;;;15.73;11.40;;;;;;;19.43;54.65;99608.78;5048667;28;20170;-84
2022/04/29 09:40:58;;;;;;;12.80;9.77;;;;;;;20.14;52.93;99739.75;5011504;28;20882;-84
2022/04/29 09:43:36;;;;;;;15.10;10.67;;;;;;;20.92;52.83;99792.84;5020951;28;20182;-83
2022/04/29 09:46:17;;;;;;;18.03;12.87;;;;;;;20.74;53.77;99792.69;5030036;28;20188;-85
2022/04/29 09:49:03;;;;;;;15.70;10.63;;;;;;;21.26;52.33;99771.66;5030987;28;20247;-84
2022/04/29 09:51:44;;;;;;;16.23;11.83;;;;;;;20.67;53.48;99784.03;5031639;28;20209;-84
2022/04/29 09:54:24;;;;;;;17.97;11.33;;;;;;;20.44;53.23;99788.97;5030521;28;20174;-82
2022/04/29 09:57:08;;;;;;;15.40;11.37;;;;;;;19.77;53.58;99655.41;5011442;28;20270;-83
2022/04/29 09:59:42;;;;;;;19.37;12.37;;;;;;;20.96;53.08;99786.84;5029876;28;20532;-85
2022/04/29 10:02:10;;;;;;;16.87;11.80;;;;;;;21.24;52.40;99777.66;5028698;28;20646;-86
2022/04/29 10:04:39;;;;;;;16.77;10.90;;;;;;;20.72;52.53;99741.19;5030525;28;20193;-83
2022/04/29 10:07:10;;;;;;;14.53;11.67;;;;;;;19.78;53.86;99670.81;5029942;28;20663;-84
2022/04/29 10:09:40;;;;;;;18.30;12.30;;;;;;;20.65;51.94;99672.53;5030503;28;20792;-83
2022/04/29 10:12:11;;;;;;;19.97;12.60;;;;;;;19.84;54.33;99652.91;5045373;28;20619;-83
2022/04/29 10:14:41;;;;;;;27.30;15.13;;;;;;;20.16;54.83;99711.50;5030568;28;20316;-85
2022/04/29 10:22:53;;;;;;;17.90;12.47;;;;;;;20.30;54.66;99726.22;5014198;28;20194;-85
2022/04/29 10:25:21;;;;;;;16.97;12.03;;;;;;;20.47;54.78;99764.97;5036549;28;20209;-91
2022/04/29 10:27:49;;;;;;;19.63;12.00;;;;;;;21.14;52.95;99756.16;5031393;28;20178;-84
2022/04/29 10:30:25;;;;;;;16.50;11.67;;;;;;;21.78;51.08;99721.31;5031648;28;20647;-84
2022/04/29 10:33:03;;;;;;;18.00;12.63;;;;;;;22.01;51.14;99763.53;5031029;28;20184;-85
2022/04/29 10:35:45;;;;;;;17.17;11.20;;;;;;;21.35;51.79;99760.56;5028645;28;20185;-84
2022/04/29 10:38:26;;;;;;;19.00;12.17;;;;;;;21.30;52.33;99742.53;5020034;28;20229;-84
2022/04/29 10:41:06;;;;;;;19.00;12.13;;;;;;;21.81;52.31;99766.84;5030661;28;20327;-84
2022/04/29 10:43:35;;;;;;;16.37;11.20;;;;;;;21.65;51.17;99755.59;5029527;28;20716;-83
2022/04/29 10:46:03;;;;;;;16.03;11.97;;;;;;;21.74;51.02;99760.81;5030808;28;20193;-85
2022/04/29 10:48:37;;;;;;;15.07;11.53;;;;;;;20.24;50.40;99589.91;5029781;28;20178;-83
2022/04/29 10:51:20;;;;;;;16.63;11.57;;;;;;;19.50;52.98;99542.94;5029812;28;20188;-84
2022/04/29 10:53:51;;;;;;;19.47;13.03;;;;;;;21.40;51.57;99759.75;5030835;28;20865;-84
2022/04/29 10:56:30;;;;;;;15.07;11.20;;;;;;;20.87;53.16;99761.06;5045090;28;20293;-84
2022/04/29 10:59:18;;;;;;;18.03;12.57;;;;;;;21.59;50.57;99715.19;5030148;28;20173;-83
2022/04/29 11:02:04;;;;;;;19.00;11.50;;;;;;;22.09;49.59;99712.81;5030837;28;20212;-84
2022/04/29 11:04:34;;;;;;;17.87;12.60;;;;;;;22.35;49.12;99743.84;5035579;28;20186;-83
2022/04/29 11:07:00;;;;;;;23.03;14.43;;;;;;;20.44;48.69;99364.59;5031875;28;20190;-84
2022/04/29 11:09:36;;;;;;;15.73;10.83;;;;;;;21.89;47.65;99538.34;5030153;28;20549;-85
2022/04/29 11:12:03;;;;;;;16.20;11.40;;;;;;;23.26;46.26;99744.75;5031640;28;20199;-83
2022/04/29 11:14:28;;;;;;;19.73;11.23;;;;;;;22.38;47.70;99630.34;5032432;28;20196;-81
2022/04/29 11:17:08;;;;;;;55.87;29.57;;;;;;;22.99;47.23;99742.16;5048867;28;20312;-83
2022/04/29 11:19:35;;;;;;;41.00;24.30;;;;;;;22.78;47.29;99731.88;5033176;28;20230;-83
2022/04/29 11:24:50;;;;;;;14.17;10.27;;;;;;;22.30;48.62;99737.81;5032842;28;20285;-83
2022/04/29 11:27:29;;;;;;;16.43;11.07;;;;;;;22.55;47.59;99728.41;5033059;28;20224;-83
2022/04/29 11:30:01;;;;;;;15.20;10.93;;;;;;;22.89;46.06;99715.50;5032575;28;20193;-84
2022/04/29 11:32:28;;;;;;;30.33;20.80;;;;;;;22.83;46.37;99710.34;5031782;28;20276;-83
2022/04/29 11:35:00;;;;;;;21.13;14.83;;;;;;;23.64;45.00;99726.56;5033397;28;20178;-84
2022/04/29 11:37:33;;;;;;;13.90;10.10;;;;;;;22.78;45.51;99721.53;5022168;28;20189;-84
2022/04/29 11:40:07;;;;;;;14.10;9.50;;;;;;;22.44;46.06;99705.16;5032964;28;20204;-85
2022/04/29 11:42:34;;;;;;;15.40;9.97;;;;;;;23.44;45.11;99716.31;5032232;28;20182;-85
2022/04/29 11:45:07;;;;;;;13.73;10.00;;;;;;;23.27;44.29;99719.75;5033839;28;20182;-84
2022/04/29 11:47:33;;;;;;;15.53;11.17;;;;;;;24.13;43.35;99718.59;5033226;28;20229;-84
2022/04/29 11:50:01;;;;;;;16.67;11.60;;;;;;;23.47;42.98;99562.94;5033087;28;20277;-84